sensor_id;sensor_type;location;lat;lon;timestamp;pressure;altitude;pressure_sealevel;temperature;humidity
7524;BME280;3803;51.666;7.630;2023-01-29T00:00:18;102428.31;;;-2.68;64.75
7524;BME280;3803;51.666;7.630;2023-01-29T00:00:39;102425.19;;;-2.66;64.73
7524;BME280;3803;51.666;7.630;2023-01-29T00:01:06;102429.06;;;-2.69;64.70
7524;BME280;3803;51.666;7.630;2023-01-29T00:01:28;102422.88;;;-2.71;64.69
7524;BME280;3803;51.666;7.630;2023-01-29T00:01:50;102418.34;;;-2.74;64.26
7524;BME280;3803;51.666;7.630;2023-01-29T00:02:11;102426.19;;;-2.72;64.54
7524;BME280;3803;51.666;7.630;2023-01-29T00:02:31;102435.25;;;-2.67;64.50
7524;BME280;3803;51.666;7.630;2023-01-29T00:02:52;102438.88;;;-2.65;64.71
7524;BME280;3803;51.666;7.630;2023-01-29T00:03:13;102433.09;;;-2.71;64.80
7524;BME280;3803;51.666;7.630;2023-01-29T00:03:35;102433.09;;;-2.71;64.48
7524;BME280;3803;51.666;7.630;2023-01-29T00:03:56;102427.06;;;-2.72;64.33
7524;BME280;3803;51.666;7.630;2023-01-29T00:04:17;102425.09;;;-2.74;64.48
7524;BME280;3803;51.666;7.630;2023-01-29T00:04:38;102419.66;;;-2.78;64.51
7524;BME280;3803;51.666;7.630;2023-01-29T00:04:59;102419.66;;;-2.78;64.66
7524;BME280;3803;51.666;7.630;2023-01-29T00:05:20;102431.28;;;-2.72;64.75
7524;BME280;3803;51.666;7.630;2023-01-29T00:05:40;102427.97;;;-2.71;64.37
7524;BME280;3803;51.666;7.630;2023-01-29T00:06:06;102431.59;;;-2.69;64.63
7524;BME280;3803;51.666;7.630;2023-01-29T00:06:27;102432.03;;;-2.73;64.74
7524;BME280;3803;51.666;7.630;2023-01-29T00:06:47;102416.03;;;-2.80;64.42
7524;BME280;3803;51.666;7.630;2023-01-29T00:07:09;102431.69;;;-2.77;64.47
7524;BME280;3803;51.666;7.630;2023-01-29T00:07:30;102436.41;;;-2.72;64.65
7524;BME280;3803;51.666;7.630;2023-01-29T00:07:51;102427.00;;;-2.81;64.52
7524;BME280;3803;51.666;7.630;2023-01-29T00:08:12;102431.84;;;-2.75;64.64
7524;BME280;3803;51.666;7.630;2023-01-29T00:08:36;102436.72;;;-2.69;64.69
7524;BME280;3803;51.666;7.630;2023-01-29T00:08:57;102424.75;;;-2.78;64.51
7524;BME280;3803;51.666;7.630;2023-01-29T00:09:17;102426.81;;;-2.82;64.63
7524;BME280;3803;51.666;7.630;2023-01-29T00:09:38;102424.06;;;-2.84;64.75
7524;BME280;3803;51.666;7.630;2023-01-29T00:10:00;102413.16;;;-2.83;64.73
7524;BME280;3803;51.666;7.630;2023-01-29T00:10:25;102429.31;;;-2.75;64.54
7524;BME280;3803;51.666;7.630;2023-01-29T00:10:46;102419.31;;;-2.81;64.99
7524;BME280;3803;51.666;7.630;2023-01-29T00:11:08;102437.47;;;-2.70;64.73
7524;BME280;3803;51.666;7.630;2023-01-29T00:11:29;102415.84;;;-2.81;64.45
7524;BME280;3803;51.666;7.630;2023-01-29T00:11:50;102429.13;;;-2.77;64.51
7524;BME280;3803;51.666;7.630;2023-01-29T00:12:11;102428.38;;;-2.75;64.81
7524;BME280;3803;51.666;7.630;2023-01-29T00:12:31;102419.50;;;-2.79;64.90
7524;BME280;3803;51.666;7.630;2023-01-29T00:12:52;102420.38;;;-2.79;64.90
7524;BME280;3803;51.666;7.630;2023-01-29T00:13:14;102427.06;;;-2.72;64.57
7524;BME280;3803;51.666;7.630;2023-01-29T00:13:35;102418.34;;;-2.74;64.51
7524;BME280;3803;51.666;7.630;2023-01-29T00:13:56;102418.91;;;-2.77;64.85
7524;BME280;3803;51.666;7.630;2023-01-29T00:14:18;102431.59;;;-2.69;64.72
7524;BME280;3803;51.666;7.630;2023-01-29T00:14:38;102413.78;;;-2.77;64.30
7524;BME280;3803;51.666;7.630;2023-01-29T00:14:59;102428.72;;;-2.72;64.77
7524;BME280;3803;51.666;7.630;2023-01-29T00:15:19;102420.13;;;-2.73;64.42
7524;BME280;3803;51.666;7.630;2023-01-29T00:15:40;102411.97;;;-2.78;64.70
7524;BME280;3803;51.666;7.630;2023-01-29T00:16:02;102414.38;;;-2.79;64.85
7524;BME280;3803;51.666;7.630;2023-01-29T00:16:23;102419.16;;;-2.82;64.28
7524;BME280;3803;51.666;7.630;2023-01-29T00:16:44;102416.03;;;-2.80;64.54
7524;BME280;3803;51.666;7.630;2023-01-29T00:17:05;102410.97;;;-2.87;64.32
7524;BME280;3803;51.666;7.630;2023-01-29T00:17:25;102410.22;;;-2.86;64.56
7524;BME280;3803;51.666;7.630;2023-01-29T00:17:47;102401.50;;;-2.88;64.62
7524;BME280;3803;51.666;7.630;2023-01-29T00:18:08;102406.63;;;-2.88;64.82
7524;BME280;3803;51.666;7.630;2023-01-29T00:18:29;102419.72;;;-2.85;64.47
7524;BME280;3803;51.666;7.630;2023-01-29T00:18:50;102409.16;;;-2.88;64.64
7524;BME280;3803;51.666;7.630;2023-01-29T00:19:11;102417.91;;;-2.86;64.77
7524;BME280;3803;51.666;7.630;2023-01-29T00:19:34;102411.38;;;-2.91;64.50
7524;BME280;3803;51.666;7.630;2023-01-29T00:19:55;102409.75;;;-2.91;64.29
7524;BME280;3803;51.666;7.630;2023-01-29T00:20:16;102403.38;;;-2.94;64.47
7524;BME280;3803;51.666;7.630;2023-01-29T00:20:36;102410.31;;;-2.93;64.41
7524;BME280;3803;51.666;7.630;2023-01-29T00:20:57;102413.59;;;-2.94;64.86
7524;BME280;3803;51.666;7.630;2023-01-29T00:21:20;102406.50;;;-2.97;64.71
7524;BME280;3803;51.666;7.630;2023-01-29T00:21:41;102407.44;;;-2.96;64.69
7524;BME280;3803;51.666;7.630;2023-01-29T00:22:02;102412.72;;;-2.95;64.70
7524;BME280;3803;51.666;7.630;2023-01-29T00:22:23;102413.78;;;-2.93;64.58
7524;BME280;3803;51.666;7.630;2023-01-29T00:22:44;102429.19;;;-2.84;64.72
7524;BME280;3803;51.666;7.630;2023-01-29T00:23:05;102416.34;;;-2.93;64.64
7524;BME280;3803;51.666;7.630;2023-01-29T00:23:25;102426.31;;;-2.87;64.67
7524;BME280;3803;51.666;7.630;2023-01-29T00:23:47;102431.03;;;-2.83;64.71
7524;BME280;3803;51.666;7.630;2023-01-29T00:24:07;102411.56;;;-2.89;64.64
7524;BME280;3803;51.666;7.630;2023-01-29T00:24:28;102410.81;;;-2.88;64.65
7524;BME280;3803;51.666;7.630;2023-01-29T00:24:49;102408.81;;;-2.91;64.71
7524;BME280;3803;51.666;7.630;2023-01-29T00:25:10;102412.47;;;-2.89;64.85
7524;BME280;3803;51.666;7.630;2023-01-29T00:25:31;102425.94;;;-2.83;64.80
7524;BME280;3803;51.666;7.630;2023-01-29T00:25:52;102416.09;;;-2.87;64.60
7524;BME280;3803;51.666;7.630;2023-01-29T00:26:13;102420.38;;;-2.79;64.64
7524;BME280;3803;51.666;7.630;2023-01-29T00:26:37;102412.03;;;-2.85;64.91
7524;BME280;3803;51.666;7.630;2023-01-29T00:26:59;102424.00;;;-2.77;64.79
7524;BME280;3803;51.666;7.630;2023-01-29T00:27:19;102424.00;;;-2.77;64.85
7524;BME280;3803;51.666;7.630;2023-01-29T00:27:42;102408.03;;;-2.83;64.83
7524;BME280;3803;51.666;7.630;2023-01-29T00:28:04;102411.47;;;-2.82;64.69
7524;BME280;3803;51.666;7.630;2023-01-29T00:28:24;102411.66;;;-2.81;64.52
7524;BME280;3803;51.666;7.630;2023-01-29T00:28:45;102413.47;;;-2.80;64.95
7524;BME280;3803;51.666;7.630;2023-01-29T00:29:06;102414.72;;;-2.76;64.55
7524;BME280;3803;51.666;7.630;2023-01-29T00:29:27;102418.34;;;-2.74;64.76
7524;BME280;3803;51.666;7.630;2023-01-29T00:29:48;102414.47;;;-2.70;64.90
7524;BME280;3803;51.666;7.630;2023-01-29T00:30:28;102411.00;;;-2.71;64.52
7524;BME280;3803;51.666;7.630;2023-01-29T00:30:48;102413.31;;;-2.65;64.52
7524;BME280;3803;51.666;7.630;2023-01-29T00:31:12;102405.72;;;-2.72;64.65
7524;BME280;3803;51.666;7.630;2023-01-29T00:31:33;102426.78;;;-2.59;64.78
7524;BME280;3803;51.666;7.630;2023-01-29T00:31:54;102400.63;;;-2.72;64.70
7524;BME280;3803;51.666;7.630;2023-01-29T00:32:14;102403.34;;;-2.71;64.99
7524;BME280;3803;51.666;7.630;2023-01-29T00:32:35;102415.69;;;-2.67;64.66
7524;BME280;3803;51.666;7.630;2023-01-29T00:32:56;102415.69;;;-2.67;64.70
7524;BME280;3803;51.666;7.630;2023-01-29T00:33:16;102409.34;;;-2.70;64.80
7524;BME280;3803;51.666;7.630;2023-01-29T00:33:37;102417.50;;;-2.66;64.87
7524;BME280;3803;51.666;7.630;2023-01-29T00:33:58;102403.91;;;-2.73;64.54
7524;BME280;3803;51.666;7.630;2023-01-29T00:34:19;102419.50;;;-2.63;64.65
7524;BME280;3803;51.666;7.630;2023-01-29T00:34:41;102402.75;;;-2.68;64.69
7524;BME280;3803;51.666;7.630;2023-01-29T00:35:02;102407.22;;;-2.74;64.58
7524;BME280;3803;51.666;7.630;2023-01-29T00:35:23;102411.22;;;-2.77;64.30
7524;BME280;3803;51.666;7.630;2023-01-29T00:35:43;102413.97;;;-2.75;64.70
7524;BME280;3803;51.666;7.630;2023-01-29T00:36:05;102404.75;;;-2.82;64.42
7524;BME280;3803;51.666;7.630;2023-01-29T00:36:27;102404.56;;;-2.83;64.61
7524;BME280;3803;51.666;7.630;2023-01-29T00:36:47;102423.44;;;-2.74;64.49
7524;BME280;3803;51.666;7.630;2023-01-29T00:37:08;102400.00;;;-2.86;64.55
7524;BME280;3803;51.666;7.630;2023-01-29T00:37:29;102403.31;;;-2.87;65.05
7524;BME280;3803;51.666;7.630;2023-01-29T00:37:50;102419.31;;;-2.81;64.50
7524;BME280;3803;51.666;7.630;2023-01-29T00:38:11;102400.44;;;-2.90;64.74
7524;BME280;3803;51.666;7.630;2023-01-29T00:38:33;102407.50;;;-2.87;64.57
7524;BME280;3803;51.666;7.630;2023-01-29T00:38:57;102407.00;;;-2.92;64.94
7524;BME280;3803;51.666;7.630;2023-01-29T00:39:18;102402.50;;;-2.95;64.57
7524;BME280;3803;51.666;7.630;2023-01-29T00:39:43;102400.81;;;-2.94;64.65
7524;BME280;3803;51.666;7.630;2023-01-29T00:40:05;102421.19;;;-2.87;64.65
7524;BME280;3803;51.666;7.630;2023-01-29T00:40:26;102394.31;;;-2.99;64.66
7524;BME280;3803;51.666;7.630;2023-01-29T00:40:47;102413.03;;;-2.92;64.50
7524;BME280;3803;51.666;7.630;2023-01-29T00:41:28;102417.59;;;-2.89;64.78
7524;BME280;3803;51.666;7.630;2023-01-29T00:42:08;102396.53;;;-3.02;64.49
7524;BME280;3803;51.666;7.630;2023-01-29T00:42:47;102411.78;;;-2.95;64.57
7524;BME280;3803;51.666;7.630;2023-01-29T00:43:27;102407.06;;;-2.99;64.81
7524;BME280;3803;51.666;7.630;2023-01-29T00:44:06;102399.84;;;-3.03;64.77
7524;BME280;3803;51.666;7.630;2023-01-29T00:44:46;102397.28;;;-3.03;64.76
7524;BME280;3803;51.666;7.630;2023-01-29T00:45:18;102406.00;;;-3.01;64.48
7524;BME280;3803;51.666;7.630;2023-01-29T00:45:39;102408.91;;;-2.98;64.64
7524;BME280;3803;51.666;7.630;2023-01-29T00:45:59;102400.16;;;-3.00;64.55
7524;BME280;3803;51.666;7.630;2023-01-29T00:46:21;102407.44;;;-2.96;64.68
7524;BME280;3803;51.666;7.630;2023-01-29T00:46:42;102404.19;;;-3.02;64.50
7524;BME280;3803;51.666;7.630;2023-01-29T00:47:04;102398.16;;;-3.03;64.70
7524;BME280;3803;51.666;7.630;2023-01-29T00:47:45;102415.28;;;-2.95;64.93
7524;BME280;3803;51.666;7.630;2023-01-29T00:48:06;102410.72;;;-2.97;64.48
7524;BME280;3803;51.666;7.630;2023-01-29T00:48:26;102415.28;;;-2.95;64.69
7524;BME280;3803;51.666;7.630;2023-01-29T00:48:47;102413.84;;;-3.00;64.37
7524;BME280;3803;51.666;7.630;2023-01-29T00:49:08;102423.25;;;-2.92;64.58
7524;BME280;3803;51.666;7.630;2023-01-29T00:49:29;102410.72;;;-2.97;64.57
7524;BME280;3803;51.666;7.630;2023-01-29T00:49:52;102406.00;;;-3.01;64.30
7524;BME280;3803;51.666;7.630;2023-01-29T00:50:12;102409.97;;;-2.96;64.53
7524;BME280;3803;51.666;7.630;2023-01-29T00:50:33;102409.81;;;-2.98;64.85
7524;BME280;3803;51.666;7.630;2023-01-29T00:50:53;102414.03;;;-2.98;64.60
7524;BME280;3803;51.666;7.630;2023-01-29T00:51:14;102400.91;;;-3.01;64.57
7524;BME280;3803;51.666;7.630;2023-01-29T00:51:35;102397.28;;;-3.03;64.63
7524;BME280;3803;51.666;7.630;2023-01-29T00:51:56;102406.69;;;-2.95;64.91
7524;BME280;3803;51.666;7.630;2023-01-29T00:52:38;102401.56;;;-2.95;65.22
7524;BME280;3803;51.666;7.630;2023-01-29T00:53:03;102405.56;;;-2.90;65.48
7524;BME280;3803;51.666;7.630;2023-01-29T00:53:23;102396.78;;;-2.92;65.20
7524;BME280;3803;51.666;7.630;2023-01-29T00:53:44;102408.03;;;-2.83;65.39
7524;BME280;3803;51.666;7.630;2023-01-29T00:54:05;102401.69;;;-2.86;65.00
7524;BME280;3803;51.666;7.630;2023-01-29T00:54:26;102405.69;;;-2.88;65.13
7524;BME280;3803;51.666;7.630;2023-01-29T00:54:46;102402.81;;;-2.92;65.14
7524;BME280;3803;51.666;7.630;2023-01-29T00:55:09;102395.16;;;-2.92;65.12
7524;BME280;3803;51.666;7.630;2023-01-29T00:55:30;102401.69;;;-2.86;64.88
7524;BME280;3803;51.666;7.630;2023-01-29T00:55:51;102413.84;;;-2.84;65.14
7524;BME280;3803;51.666;7.630;2023-01-29T00:56:11;102394.97;;;-2.93;65.12
7524;BME280;3803;51.666;7.630;2023-01-29T00:56:35;102415.34;;;-2.86;64.61
7524;BME280;3803;51.666;7.630;2023-01-29T00:56:56;102409.91;;;-2.89;64.89
7524;BME280;3803;51.666;7.630;2023-01-29T00:57:16;102401.41;;;-2.97;64.85
7524;BME280;3803;51.666;7.630;2023-01-29T00:57:37;102403.38;;;-2.94;64.84
7524;BME280;3803;51.666;7.630;2023-01-29T00:57:59;102408.50;;;-2.94;64.78
7524;BME280;3803;51.666;7.630;2023-01-29T00:58:20;102399.41;;;-2.99;64.67
7524;BME280;3803;51.666;7.630;2023-01-29T00:58:42;102411.06;;;-2.94;64.51
7524;BME280;3803;51.666;7.630;2023-01-29T00:59:03;102392.16;;;-3.03;64.95
7524;BME280;3803;51.666;7.630;2023-01-29T00:59:23;102417.97;;;-2.93;64.89
7524;BME280;3803;51.666;7.630;2023-01-29T00:59:44;102408.75;;;-3.00;64.69
7524;BME280;3803;51.666;7.630;2023-01-29T01:00:09;102404.19;;;-3.02;64.85
7524;BME280;3803;51.666;7.630;2023-01-29T01:00:30;102398.91;;;-3.04;64.61
7524;BME280;3803;51.666;7.630;2023-01-29T01:00:50;102406.94;;;-3.01;64.81
7524;BME280;3803;51.666;7.630;2023-01-29T01:01:11;102406.75;;;-3.02;64.73
7524;BME280;3803;51.666;7.630;2023-01-29T01:01:33;102414.91;;;-2.98;64.77
7524;BME280;3803;51.666;7.630;2023-01-29T01:02:12;102401.47;;;-3.04;64.71
7524;BME280;3803;51.666;7.630;2023-01-29T01:02:51;102417.88;;;-3.02;64.65
7524;BME280;3803;51.666;7.630;2023-01-29T01:03:28;102407.88;;;-3.08;64.87
7524;BME280;3803;51.666;7.630;2023-01-29T01:03:49;102420.59;;;-3.00;64.98
7524;BME280;3803;51.666;7.630;2023-01-29T01:04:10;102413.84;;;-3.00;64.71
7524;BME280;3803;51.666;7.630;2023-01-29T01:04:34;102409.88;;;-3.05;64.73
7524;BME280;3803;51.666;7.630;2023-01-29T01:04:54;102432.22;;;-2.95;64.71
7524;BME280;3803;51.666;7.630;2023-01-29T01:05:16;102411.53;;;-3.06;64.88
7524;BME280;3803;51.666;7.630;2023-01-29T01:05:37;102421.00;;;-3.05;64.99
7524;BME280;3803;51.666;7.630;2023-01-29T01:06:05;102424.38;;;-2.97;65.19
7524;BME280;3803;51.666;7.630;2023-01-29T01:06:27;102404.63;;;-3.07;65.20
7524;BME280;3803;51.666;7.630;2023-01-29T01:06:47;102420.94;;;-2.97;65.40
7524;BME280;3803;51.666;7.630;2023-01-29T01:07:10;102427.31;;;-2.94;64.72
7524;BME280;3803;51.666;7.630;2023-01-29T01:07:32;102413.84;;;-3.00;64.98
7524;BME280;3803;51.666;7.630;2023-01-29T01:07:56;102414.16;;;-2.97;64.98
7524;BME280;3803;51.666;7.630;2023-01-29T01:08:16;102426.56;;;-2.93;65.16
7524;BME280;3803;51.666;7.630;2023-01-29T01:08:56;102409.06;;;-2.97;65.24
7524;BME280;3803;51.666;7.630;2023-01-29T01:09:36;102413.34;;;-2.88;65.18
7524;BME280;3803;51.666;7.630;2023-01-29T01:10:21;102423.38;;;-2.83;64.88
7524;BME280;3803;51.666;7.630;2023-01-29T01:10:42;102425.19;;;-2.82;65.05
7524;BME280;3803;51.666;7.630;2023-01-29T01:11:05;102440.38;;;-2.67;65.24
7524;BME280;3803;51.666;7.630;2023-01-29T01:11:26;102407.59;;;-2.79;65.19
7524;BME280;3803;51.666;7.630;2023-01-29T01:11:46;102428.31;;;-2.68;64.93
7524;BME280;3803;51.666;7.630;2023-01-29T01:12:07;102419.56;;;-2.70;65.17
7524;BME280;3803;51.666;7.630;2023-01-29T01:12:28;102426.50;;;-2.69;65.18
7524;BME280;3803;51.666;7.630;2023-01-29T01:12:55;102443.19;;;-2.57;65.24
7524;BME280;3803;51.666;7.630;2023-01-29T01:13:18;102421.00;;;-2.65;64.89
7524;BME280;3803;51.666;7.630;2023-01-29T01:13:39;102421.00;;;-2.65;65.30
7524;BME280;3803;51.666;7.630;2023-01-29T01:13:59;102421.38;;;-2.69;65.32
7524;BME280;3803;51.666;7.630;2023-01-29T01:14:21;102422.81;;;-2.64;64.95
7524;BME280;3803;51.666;7.630;2023-01-29T01:14:42;102417.69;;;-2.64;65.13
7524;BME280;3803;51.666;7.630;2023-01-29T01:15:03;102414.56;;;-2.61;64.91
7524;BME280;3803;51.666;7.630;2023-01-29T01:15:27;102414.00;;;-2.59;64.81
7524;BME280;3803;51.666;7.630;2023-01-29T01:15:48;102414.31;;;-2.56;65.27
7524;BME280;3803;51.666;7.630;2023-01-29T01:16:14;102413.56;;;-2.55;65.06
7524;BME280;3803;51.666;7.630;2023-01-29T01:16:35;102424.84;;;-2.53;64.88
7524;BME280;3803;51.666;7.630;2023-01-29T01:16:56;102419.41;;;-2.56;64.99
7524;BME280;3803;51.666;7.630;2023-01-29T01:17:17;102414.31;;;-2.56;64.80
7524;BME280;3803;51.666;7.630;2023-01-29T01:17:37;102412.81;;;-2.54;64.90
7524;BME280;3803;51.666;7.630;2023-01-29T01:17:59;102423.41;;;-2.51;64.88
7524;BME280;3803;51.666;7.630;2023-01-29T01:18:20;102412.50;;;-2.57;65.09
7524;BME280;3803;51.666;7.630;2023-01-29T01:18:41;102411.56;;;-2.57;64.76
7524;BME280;3803;51.666;7.630;2023-01-29T01:19:03;102419.75;;;-2.53;64.94
7524;BME280;3803;51.666;7.630;2023-01-29T01:19:24;102414.97;;;-2.50;64.90
7524;BME280;3803;51.666;7.630;2023-01-29T01:19:45;102407.56;;;-2.55;64.87
7524;BME280;3803;51.666;7.630;2023-01-29T01:20:06;102412.06;;;-2.53;64.84
7524;BME280;3803;51.666;7.630;2023-01-29T01:20:30;102418.28;;;-2.51;64.98
7524;BME280;3803;51.666;7.630;2023-01-29T01:20:56;102411.31;;;-2.52;64.97
7524;BME280;3803;51.666;7.630;2023-01-29T01:21:17;102407.13;;;-2.51;65.05
7524;BME280;3803;51.666;7.630;2023-01-29T01:21:37;102408.19;;;-2.49;64.99
7524;BME280;3803;51.666;7.630;2023-01-29T01:21:58;102414.53;;;-2.45;65.01
7524;BME280;3803;51.666;7.630;2023-01-29T01:22:19;102396.72;;;-2.53;65.09
7524;BME280;3803;51.666;7.630;2023-01-29T01:22:41;102402.34;;;-2.48;65.06
7524;BME280;3803;51.666;7.630;2023-01-29T01:23:02;102400.88;;;-2.46;64.97
7524;BME280;3803;51.666;7.630;2023-01-29T01:23:23;102410.19;;;-2.46;65.04
7524;BME280;3803;51.666;7.630;2023-01-29T01:23:43;102385.44;;;-2.55;64.67
7524;BME280;3803;51.666;7.630;2023-01-29T01:24:04;102395.66;;;-2.55;65.04
7524;BME280;3803;51.666;7.630;2023-01-29T01:24:25;102401.00;;;-2.44;64.91
7524;BME280;3803;51.666;7.630;2023-01-29T01:24:46;102411.09;;;-2.46;65.06
7524;BME280;3803;51.666;7.630;2023-01-29T01:25:07;102394.53;;;-2.50;64.99
7524;BME280;3803;51.666;7.630;2023-01-29T01:25:27;102391.03;;;-2.50;65.10
7524;BME280;3803;51.666;7.630;2023-01-29T01:25:49;102387.91;;;-2.47;64.91
7524;BME280;3803;51.666;7.630;2023-01-29T01:26:09;102398.47;;;-2.44;64.90
7524;BME280;3803;51.666;7.630;2023-01-29T01:26:31;102387.59;;;-2.51;64.92
7524;BME280;3803;51.666;7.630;2023-01-29T01:26:52;102381.75;;;-2.50;64.70
7524;BME280;3803;51.666;7.630;2023-01-29T01:27:13;102386.09;;;-2.48;64.69
7524;BME280;3803;51.666;7.630;2023-01-29T01:27:33;102382.47;;;-2.51;64.58
7524;BME280;3803;51.666;7.630;2023-01-29T01:27:58;102374.31;;;-2.55;64.91
7524;BME280;3803;51.666;7.630;2023-01-29T01:28:20;102379.56;;;-2.54;64.80
7524;BME280;3803;51.666;7.630;2023-01-29T01:28:41;102379.25;;;-2.57;64.82
7524;BME280;3803;51.666;7.630;2023-01-29T01:29:02;102388.31;;;-2.52;64.72
7524;BME280;3803;51.666;7.630;2023-01-29T01:29:22;102367.31;;;-2.65;64.70
7524;BME280;3803;51.666;7.630;2023-01-29T01:29:44;102378.19;;;-2.59;64.75
7524;BME280;3803;51.666;7.630;2023-01-29T01:30:15;102357.66;;;-2.68;64.77
7524;BME280;3803;51.666;7.630;2023-01-29T01:30:35;102371.50;;;-2.66;64.89
7524;BME280;3803;51.666;7.630;2023-01-29T01:30:56;102376.97;;;-2.63;64.62
7524;BME280;3803;51.666;7.630;2023-01-29T01:31:17;102374.56;;;-2.61;64.63
7524;BME280;3803;51.666;7.630;2023-01-29T01:31:38;102375.13;;;-2.64;65.15
7524;BME280;3803;51.666;7.630;2023-01-29T01:31:59;102375.13;;;-2.64;64.71
7524;BME280;3803;51.666;7.630;2023-01-29T01:32:20;102372.06;;;-2.68;64.85
7524;BME280;3803;51.666;7.630;2023-01-29T01:32:41;102371.19;;;-2.69;64.89
7524;BME280;3803;51.666;7.630;2023-01-29T01:33:15;102385.34;;;-2.64;64.71
7524;BME280;3803;51.666;7.630;2023-01-29T01:33:37;102368.13;;;-2.73;65.00
7524;BME280;3803;51.666;7.630;2023-01-29T01:33:58;102367.03;;;-2.75;65.15
7524;BME280;3803;51.666;7.630;2023-01-29T01:34:20;102363.28;;;-2.79;65.19
7524;BME280;3803;51.666;7.630;2023-01-29T01:34:42;102378.09;;;-2.68;64.96
7524;BME280;3803;51.666;7.630;2023-01-29T01:35:09;102375.81;;;-2.73;65.20
7524;BME280;3803;51.666;7.630;2023-01-29T01:35:30;102366.31;;;-2.74;64.97
7524;BME280;3803;51.666;7.630;2023-01-29T01:35:51;102365.97;;;-2.78;64.90
7524;BME280;3803;51.666;7.630;2023-01-29T01:36:11;102371.09;;;-2.78;65.06
7524;BME280;3803;51.666;7.630;2023-01-29T01:36:33;102366.16;;;-2.76;65.06
7524;BME280;3803;51.666;7.630;2023-01-29T01:36:54;102369.94;;;-2.72;65.11
7524;BME280;3803;51.666;7.630;2023-01-29T01:37:18;102370.69;;;-2.73;64.96
7524;BME280;3803;51.666;7.630;2023-01-29T01:37:40;102371.25;;;-2.76;64.73
7524;BME280;3803;51.666;7.630;2023-01-29T01:38:01;102377.63;;;-2.72;64.84
7524;BME280;3803;51.666;7.630;2023-01-29T01:38:22;102359.38;;;-2.75;65.09
7524;BME280;3803;51.666;7.630;2023-01-29T01:38:42;102360.28;;;-2.75;64.83
7524;BME280;3803;51.666;7.630;2023-01-29T01:39:06;102369.50;;;-2.68;65.06
7524;BME280;3803;51.666;7.630;2023-01-29T01:39:27;102358.22;;;-2.70;65.16
7524;BME280;3803;51.666;7.630;2023-01-29T01:39:47;102374.56;;;-2.61;65.08
7524;BME280;3803;51.666;7.630;2023-01-29T01:40:21;102360.38;;;-2.66;64.82
7524;BME280;3803;51.666;7.630;2023-01-29T01:40:44;102382.72;;;-2.56;65.21
7524;BME280;3803;51.666;7.630;2023-01-29T01:41:05;102371.09;;;-2.61;65.15
7524;BME280;3803;51.666;7.630;2023-01-29T01:41:25;102361.63;;;-2.63;64.90
7524;BME280;3803;51.666;7.630;2023-01-29T01:41:46;102364.91;;;-2.64;64.67
7524;BME280;3803;51.666;7.630;2023-01-29T01:42:13;102371.25;;;-2.60;65.06
7524;BME280;3803;51.666;7.630;2023-01-29T01:42:34;102355.28;;;-2.66;65.19
7524;BME280;3803;51.666;7.630;2023-01-29T01:42:58;102367.97;;;-2.59;64.85
7524;BME280;3803;51.666;7.630;2023-01-29T01:43:20;102366.13;;;-2.60;64.54
7524;BME280;3803;51.666;7.630;2023-01-29T01:43:55;102372.47;;;-2.56;65.10
7524;BME280;3803;51.666;7.630;2023-01-29T01:44:58;102383.53;;;-2.48;64.85
7524;BME280;3803;51.666;7.630;2023-01-29T01:45:26;102360.69;;;-2.63;64.90
7524;BME280;3803;51.666;7.630;2023-01-29T01:45:47;102368.28;;;-2.56;64.72
7524;BME280;3803;51.666;7.630;2023-01-29T01:46:08;102371.91;;;-2.54;64.92
7524;BME280;3803;51.666;7.630;2023-01-29T01:46:32;102372.84;;;-2.53;64.97
7524;BME280;3803;51.666;7.630;2023-01-29T01:46:54;102360.78;;;-2.54;64.82
7524;BME280;3803;51.666;7.630;2023-01-29T01:47:17;102372.47;;;-2.56;64.91
7524;BME280;3803;51.666;7.630;2023-01-29T01:47:43;102364.25;;;-2.54;64.90
7524;BME280;3803;51.666;7.630;2023-01-29T01:48:07;102386.41;;;-2.45;64.71
7524;BME280;3803;51.666;7.630;2023-01-29T01:48:32;102366.78;;;-2.54;64.57
7524;BME280;3803;51.666;7.630;2023-01-29T01:49:09;102359.56;;;-2.58;64.64
7524;BME280;3803;51.666;7.630;2023-01-29T01:49:31;102367.53;;;-2.55;64.91
7524;BME280;3803;51.666;7.630;2023-01-29T01:49:53;102377.50;;;-2.49;64.66
7524;BME280;3803;51.666;7.630;2023-01-29T01:50:17;102377.69;;;-2.47;64.95
7524;BME280;3803;51.666;7.630;2023-01-29T01:50:50;102367.97;;;-2.59;64.82
7524;BME280;3803;51.666;7.630;2023-01-29T01:51:12;102367.53;;;-2.55;64.68
7524;BME280;3803;51.666;7.630;2023-01-29T01:51:36;102371.59;;;-2.57;64.93
7524;BME280;3803;51.666;7.630;2023-01-29T01:51:59;102372.66;;;-2.55;64.82
7524;BME280;3803;51.666;7.630;2023-01-29T01:52:21;102366.13;;;-2.60;64.68
7524;BME280;3803;51.666;7.630;2023-01-29T01:52:46;102367.97;;;-2.59;64.80
7524;BME280;3803;51.666;7.630;2023-01-29T01:53:12;102381.38;;;-2.53;64.35
7524;BME280;3803;51.666;7.630;2023-01-29T01:53:38;102355.84;;;-2.69;64.76
7524;BME280;3803;51.666;7.630;2023-01-29T01:54:06;102361.13;;;-2.67;64.82
7524;BME280;3803;51.666;7.630;2023-01-29T01:54:29;102373.91;;;-2.67;64.60
7524;BME280;3803;51.666;7.630;2023-01-29T01:54:50;102370.25;;;-2.69;64.42
7524;BME280;3803;51.666;7.630;2023-01-29T01:55:13;102382.66;;;-2.65;64.47
7524;BME280;3803;51.666;7.630;2023-01-29T01:55:43;102377.78;;;-2.71;64.78
7524;BME280;3803;51.666;7.630;2023-01-29T01:56:13;102374.13;;;-2.73;64.56
7524;BME280;3803;51.666;7.630;2023-01-29T01:56:39;102367.22;;;-2.74;64.62
7524;BME280;3803;51.666;7.630;2023-01-29T01:57:06;102372.31;;;-2.74;64.54
7524;BME280;3803;51.666;7.630;2023-01-29T01:57:29;102367.22;;;-2.74;64.78
7524;BME280;3803;51.666;7.630;2023-01-29T01:58:05;102381.97;;;-2.71;64.75
7524;BME280;3803;51.666;7.630;2023-01-29T01:58:34;102379.03;;;-2.67;64.92
7524;BME280;3803;51.666;7.630;2023-01-29T01:58:57;102371.75;;;-2.71;64.79
7524;BME280;3803;51.666;7.630;2023-01-29T01:59:18;102389.56;;;-2.64;64.93
7524;BME280;3803;51.666;7.630;2023-01-29T01:59:39;102388.06;;;-2.62;64.68
7524;BME280;3803;51.666;7.630;2023-01-29T02:00:07;102373.16;;;-2.66;64.85
7524;BME280;3803;51.666;7.630;2023-01-29T02:00:35;102388.00;;;-2.55;64.99
7524;BME280;3803;51.666;7.630;2023-01-29T02:00:56;102376.72;;;-2.57;64.67
7524;BME280;3803;51.666;7.630;2023-01-29T02:01:18;102376.72;;;-2.57;64.84
7524;BME280;3803;51.666;7.630;2023-01-29T02:01:48;102373.72;;;-2.53;64.76
7524;BME280;3803;51.666;7.630;2023-01-29T02:02:10;102370.41;;;-2.52;64.97
7524;BME280;3803;51.666;7.630;2023-01-29T02:03:10;102378.91;;;-2.44;64.82
7524;BME280;3803;51.666;7.630;2023-01-29T02:03:55;102383.59;;;-2.40;64.98
7524;BME280;3803;51.666;7.630;2023-01-29T02:04:34;102379.59;;;-2.38;64.95
7524;BME280;3803;51.666;7.630;2023-01-29T02:05:13;102378.41;;;-2.32;64.75
7524;BME280;3803;51.666;7.630;2023-01-29T02:05:54;102375.25;;;-2.30;64.74